MSC Turchia — A8IL9 — position and weather

sailwx.info

Track history (hours):
 
Tides and Currents Weather Stations Pressure Air Temp Water Temp Dewpoint Dewpoint Depression Visibility Wind Speed Wind Dir Waves Ship Positions

MSC Turchia

Last reported at 2015-May-23 03:28 UTC. Time now 2015-May-28 16:14 UTC.
Position S 13°05' W 038°27'.

Length 276 m; beam 40 m; draft 14 m.

Type: Ship. MMSI: 636091212.

Date/timePositionNaut miles runAvg speedWind from/ knotsBaromVisibWave heightAir tempDewpointWater temp
2015-May-23 03:28S 13°05' W 038°27'9 9.7
2015-May-23 02:34S 12°59' W 038°33'3 2.9
2015-May-23 01:33S 12°57' W 038°31'0 0.0
2015-May-23 00:33S 12°57' W 038°30'0 0.0
2015-May-22 23:33S 12°57' W 038°30'0 0.0
2015-May-22 22:33S 12°57' W 038°30'0 0.0
2015-May-22 21:33S 12°57' W 038°30'0 0.0
2015-May-22 20:33S 12°57' W 038°30'0 0.0
2015-May-22 19:33S 12°57' W 038°30'0 0.0
2015-May-22 18:33S 12°57' W 038°30'0 0.0
2015-May-22 17:33S 12°57' W 038°30'0 0.0
2015-May-22 16:33S 12°57' W 038°31'3 2.5
2015-May-22 15:33S 12°57' W 038°33'6 5.5
2015-May-22 14:33S 13°02' W 038°34'7 6.9
2015-May-22 13:33S 13°09' W 038°34'1 0.5
2015-May-22 12:33S 13°09' W 038°33'2 2.0
2015-May-22 11:33S 13°07' W 038°34'1010.4
2015-May-22 10:33S 13°18' W 038°33'2 2.1
2015-May-22 09:30S 13°16' W 038°33'1 1.2
2015-May-22 08:33S 13°16' W 038°32'4 3.1
2015-May-22 07:21S 13°20' W 038°33'  
2015-May-19 09:33S 24°15' W 045°44'1918.8
2015-May-19 08:34S 24°15' W 046°05'1616.3
2015-May-19 07:33S 24°09' W 046°21'1111.0
2015-May-19 06:33S 23°59' W 046°17'1 0.5
2015-May-19 05:32S 23°58' W 046°18'0 0.0
2015-May-19 04:32S 23°58' W 046°18'0 0.0
2015-May-19 03:32S 23°58' W 046°18'0 0.0
2015-May-19 02:32S 23°58' W 046°18'0 0.0
2015-May-19 01:32S 23°58' W 046°18'0 0.0
2015-May-19 00:32S 23°58' W 046°18'0 0.0
2015-May-18 23:32S 23°58' W 046°18'0 0.0
2015-May-18 22:32S 23°58' W 046°18'0 0.0
2015-May-18 21:32S 23°58' W 046°18'0 0.0
2015-May-18 20:32S 23°58' W 046°18'0 0.0
2015-May-18 19:32S 23°58' W 046°18'0 0.0
2015-May-18 18:20S 23°58' W 046°18'0 0.0
2015-May-18 17:32S 23°58' W 046°18'0 0.0
2015-May-18 16:32S 23°58' W 046°18'0 0.0
2015-May-18 15:29S 23°58' W 046°18'4 3.9
2015-May-18 14:33S 24°01' W 046°20'9 8.8
2015-May-18 13:34S 24°09' W 046°24'1 1.1
2015-May-18 12:33S 24°10' W 046°24'4 3.8
2015-May-18 11:33S 24°13' W 046°27'5 5.3
2015-May-18 10:34S 24°18' W 046°29'1413.6
2015-May-18 09:31S 24°31' W 046°35'209 7.2
2015-May-17 04:22S 27°42' W 048°08'  
2015-May-13 14:18S 34°50' W 057°26'6 3.4
2015-May-13 12:33S 34°47' W 057°32'7 6.6
2015-May-13 11:33S 34°45' W 057°40'8 8.4
2015-May-13 10:33S 34°44' W 057°50'1110.9
2015-May-13 09:33S 34°40' W 058°02'1313.3
2015-May-13 08:33S 34°36' W 058°17'4 2.8
2015-May-13 07:07S 34°35' W 058°22'0 0.0
2015-May-13 06:19S 34°35' W 058°22'0 0.0
2015-May-13 04:13S 34°35' W 058°22'  
Track history (hours):
 
Tides and Currents Weather Stations Pressure Air Temp Water Temp Dewpoint Dewpoint Depression Visibility Wind Speed Wind Dir Waves Ship Positions

MSC Turchia

Last reported at 2015-May-23 03:28 UTC. Time now 2015-May-28 16:14 UTC.
Position S 13°05' W 038°27'.

Length 276 m; beam 40 m; draft 14 m.

Type: Ship. MMSI: 636091212.

Date/timePositionNaut miles runAvg speedWind from/ knotsBaromVisibWave heightAir tempDewpointWater temp
2015-May-23 03:28S 13°05' W 038°27'9 9.7
2015-May-23 02:34S 12°59' W 038°33'3 2.9
2015-May-23 01:33S 12°57' W 038°31'0 0.0
2015-May-23 00:33S 12°57' W 038°30'0 0.0
2015-May-22 23:33S 12°57' W 038°30'0 0.0
2015-May-22 22:33S 12°57' W 038°30'0 0.0
2015-May-22 21:33S 12°57' W 038°30'0 0.0
2015-May-22 20:33S 12°57' W 038°30'0 0.0
2015-May-22 19:33S 12°57' W 038°30'0 0.0
2015-May-22 18:33S 12°57' W 038°30'0 0.0
2015-May-22 17:33S 12°57' W 038°30'0 0.0
2015-May-22 16:33S 12°57' W 038°31'3 2.5
2015-May-22 15:33S 12°57' W 038°33'6 5.5
2015-May-22 14:33S 13°02' W 038°34'7 6.9
2015-May-22 13:33S 13°09' W 038°34'1 0.5
2015-May-22 12:33S 13°09' W 038°33'2 2.0
2015-May-22 11:33S 13°07' W 038°34'1010.4
2015-May-22 10:33S 13°18' W 038°33'2 2.1
2015-May-22 09:30S 13°16' W 038°33'1 1.2
2015-May-22 08:33S 13°16' W 038°32'4 3.1
2015-May-22 07:21S 13°20' W 038°33'  
2015-May-19 09:33S 24°15' W 045°44'1918.8
2015-May-19 08:34S 24°15' W 046°05'1616.3
2015-May-19 07:33S 24°09' W 046°21'1111.0
2015-May-19 06:33S 23°59' W 046°17'1 0.5
2015-May-19 05:32S 23°58' W 046°18'0 0.0
2015-May-19 04:32S 23°58' W 046°18'0 0.0
2015-May-19 03:32S 23°58' W 046°18'0 0.0
2015-May-19 02:32S 23°58' W 046°18'0 0.0
2015-May-19 01:32S 23°58' W 046°18'0 0.0
2015-May-19 00:32S 23°58' W 046°18'0 0.0
2015-May-18 23:32S 23°58' W 046°18'0 0.0
2015-May-18 22:32S 23°58' W 046°18'0 0.0
2015-May-18 21:32S 23°58' W 046°18'0 0.0
2015-May-18 20:32S 23°58' W 046°18'0 0.0
2015-May-18 19:32S 23°58' W 046°18'0 0.0
2015-May-18 18:20S 23°58' W 046°18'0 0.0
2015-May-18 17:32S 23°58' W 046°18'0 0.0
2015-May-18 16:32S 23°58' W 046°18'0 0.0
2015-May-18 15:29S 23°58' W 046°18'4 3.9
2015-May-18 14:33S 24°01' W 046°20'9 8.8
2015-May-18 13:34S 24°09' W 046°24'1 1.1
2015-May-18 12:33S 24°10' W 046°24'4 3.8
2015-May-18 11:33S 24°13' W 046°27'5 5.3
2015-May-18 10:34S 24°18' W 046°29'1413.6
2015-May-18 09:31S 24°31' W 046°35'209 7.2
2015-May-17 04:22S 27°42' W 048°08'  
2015-May-13 14:18S 34°50' W 057°26'6 3.4
2015-May-13 12:33S 34°47' W 057°32'7 6.6
2015-May-13 11:33S 34°45' W 057°40'8 8.4
2015-May-13 10:33S 34°44' W 057°50'1110.9
2015-May-13 09:33S 34°40' W 058°02'1313.3
2015-May-13 08:33S 34°36' W 058°17'4 2.8
2015-May-13 07:07S 34°35' W 058°22'0 0.0
2015-May-13 06:19S 34°35' W 058°22'0 0.0
2015-May-13 04:13S 34°35' W 058°22'  

Dump ship's entire track history